Flight Track Log - Related Links

Times and Time Zones

All times are in EDT time to prevent confusion due to time zone crossing. See the AWE431 flight status page for this flight to view local times or setup timezone preferences in your user account.

Time Position Orientation Groundspeed Altitude Reporting Facility
EDT Latitude Longitude Course Direction KTS MPH feet Rate Location/Type
Sun 02:17:09 AM 36.1028 -115.1514 81° East 166 191 3,100  Level Los Angeles Center
Sun 02:17:52 AM 36.1278 -115.1272 38° Northeast 170 196 5,200 1,981 Climbing Los Angeles Center
Sun 02:18:52 AM 36.1358 -115.0553 82° East 227 261 6,500 1,185 Climbing Los Angeles Center
Sun 02:19:13 AM 36.1386 -115.0239 84° East 225 259 6,800 1,082 Climbing Los Angeles Center
Sun 02:19:53 AM 36.1442 -114.9647 83° East 291 335 7,600 1,770 Climbing Los Angeles Center
Sun 02:20:00 AM 36.1833 -114.5126 90° East  Level FlightAware Approximate
Sun 02:20:14 AM 36.1489 -114.9250 82° East 287 330 8,600  Level Los Angeles Center
Sun 02:21:00 AM 36.1833 -114.3497 90° East  Level FlightAware Approximate
Sun 02:21:14 AM 36.1567 -114.8283 84° East 311 358 10,400  Level Los Angeles Center
Sun 02:22:00 AM 36.1870 -114.1871 81° East  Level FlightAware Approximate
Sun 02:22:15 AM 36.1825 -114.7269 72° East 308 354 12,100  Level Los Angeles Center
Sun 02:23:15 AM 36.1881 -114.6136 86° East 328 377 13,600 1,488 Climbing Los Angeles Center
Sun 02:24:16 AM 36.1889 -114.4942 89° East 342 394 15,100 1,587 Climbing Los Angeles Center
Sun 02:25:16 AM 36.1911 -114.3717 89° East 351 404 16,800 1,835 Climbing Los Angeles Center
Sun 02:26:17 AM 36.1917 -114.2439 90° East 369 425 18,800 1,686 Climbing Los Angeles Center
Sun 02:27:17 AM 36.2083 -114.1050 82° East 403 464 20,200 1,339 Climbing Los Angeles Center
Sun 02:28:18 AM 36.2300 -113.9344 81° East 417 480 21,500 1,140 Climbing Los Angeles Center
Sun 02:29:18 AM 36.2472 -113.7869 82° East 429 494 22,500 992 Climbing Los Angeles Center
Sun 02:30:19 AM 36.2639 -113.6361 82° East 438 504 23,500 1,091 Climbing Los Angeles Center
Sun 02:31:19 AM 36.2825 -113.4808 81° East 449 517 24,700 1,091 Climbing Los Angeles Center
Sun 02:32:20 AM 36.3000 -113.3250 82° East 453 521 25,700 793 Climbing Los Angeles Center
Sun 02:33:20 AM 36.3331 -113.1683 75° East 468 539 26,300 694 Climbing Los Angeles Center
Sun 02:34:21 AM 36.3875 -113.0228 65° Northeast 468 539 27,100 744 Climbing Los Angeles Center
Sun 02:35:21 AM 36.4422 -112.8733 65° Northeast 474 545 27,800 645 Climbing Los Angeles Center
Sun 02:36:22 AM 36.4986 -112.7197 65° Northeast 484 557 28,400 545 Climbing Los Angeles Center
Sun 02:37:22 AM 36.5567 -112.5647 65° Northeast 491 565 28,900 545 Climbing Los Angeles Center
Sun 02:38:23 AM 36.6142 -112.4075 65° Northeast 497 572 29,500 595 Climbing Los Angeles Center
Sun 02:39:23 AM 36.6717 -112.2489 66° East 502 578 30,100 600 Climbing Los Angeles Center
Sun 02:40:23 AM 36.7300 -112.0875 66° East 510 587 30,700 545 Climbing Los Angeles Center
Sun 02:41:24 AM 36.7869 -111.9267 66° East 510 587 31,200 595 Climbing Los Angeles Center
Sun 02:42:24 AM 36.8458 -111.7633 66° East 515 593 31,900 505 Climbing Los Angeles Center
Sun 02:43:11 AM 36.8922 -111.6339 66° East 511 588 32,100 280 Climbing Denver Center
Sun 02:44:11 AM 36.9514 -111.4672 66° East 521 600 32,400 446 Climbing Denver Center
Sun 02:45:12 AM 37.0081 -111.3014 67° East 521 600 33,000 298 Climbing Denver Center
Sun 02:46:12 AM 37.0683 -111.1328 66° East 527 606 33,000  Level Denver Center
Sun 02:47:12 AM 37.1275 -110.9611 67° East 536 617 33,000  Level Denver Center
Sun 02:48:12 AM 37.1883 -110.7894 66° East 537 618 33,000  Level Denver Center
Sun 02:49:12 AM 37.2467 -110.6175 67° East 538 619 33,000  Level Denver Center
Sun 02:50:13 AM 37.3058 -110.4428 67° East 540 621 33,000  Level Denver Center
Sun 02:51:13 AM 37.3647 -110.2686 67° East 543 625 33,000  Level Denver Center
Sun 02:52:13 AM 37.4283 -110.0808 67° East 544 626 33,000  Level Denver Center
Sun 02:53:13 AM 37.4847 -109.9142 67° East 544 626 33,000  Level Denver Center
Sun 02:54:14 AM 37.5508 -109.7169 67° East 544 626 33,000  Level Denver Center
Sun 02:55:14 AM 37.6061 -109.5481 68° East 544 626 33,000  Level Denver Center
Sun 02:56:14 AM 37.6619 -109.3792 67° East 544 626 33,000  Level Denver Center
Sun 02:57:14 AM 37.7186 -109.2083 67° East 547 629 33,000  Level Denver Center
Sun 02:58:15 AM 37.7811 -109.0058 69° East 549 632 33,000  Level Denver Center
Sun 02:59:15 AM 37.8119 -108.8269 78° East 547 629 33,000  Level Denver Center
Sun 03:00:15 AM 37.8214 -108.6447 86° East 547 629 33,000  Level Denver Center
Sun 03:01:15 AM 37.8292 -108.4675 87° East 539 620 33,000  Level Denver Center
Sun 03:02:16 AM 37.8381 -108.2578 87° East 537 618 33,000  Level Denver Center
Sun 03:03:16 AM 37.8458 -108.0792 87° East 537 618 33,000  Level Denver Center
Sun 03:04:16 AM 37.8531 -107.9033 87° East 531 611 33,000  Level Denver Center
Sun 03:05:16 AM 37.8617 -107.6928 87° East 532 612 33,000  Level Denver Center
Sun 03:06:17 AM 37.8683 -107.5122 87° East 534 615 33,000  Level Denver Center
Sun 03:07:17 AM 37.8744 -107.3344 87° East 532 612 33,000  Level Denver Center
Sun 03:08:17 AM 37.8819 -107.1297 87° East 530 610 33,000  Level Denver Center
Sun 03:09:17 AM 37.8878 -106.9506 88° East 533 613 33,000  Level Denver Center
Sun 03:10:18 AM 37.8931 -106.7739 88° East 529 609 33,000  Level Denver Center
Sun 03:11:18 AM 37.8975 -106.5986 88° East 526 605 33,000  Level Denver Center
Sun 03:12:18 AM 37.9047 -106.4036 87° East 524 603 33,000  Level Denver Center
Sun 03:13:19 AM 37.9075 -106.2208 89° East 524 603 33,000  Level Denver Center
Sun 03:14:19 AM 37.9133 -106.0339 88° East 528 608 33,000  Level Denver Center
Sun 03:15:19 AM 37.9167 -105.8478 89° East 529 609 33,000  Level Denver Center
Sun 03:16:19 AM 37.9208 -105.6608 88° East 531 611 33,000  Level Denver Center
Sun 03:17:20 AM 37.9244 -105.4731 89° East 532 612 33,000  Level Denver Center
Sun 03:18:20 AM 37.9281 -105.2878 89° East 531 611 33,000  Level Denver Center
Sun 03:19:20 AM 37.9317 -105.1014 89° East 530 610 33,000 50 Level Denver Center
Sun 03:20:21 AM 37.9344 -104.9142 89° East 532 612 33,100  Climbing Denver Center
Sun 03:21:21 AM 37.9375 -104.7283 89° East 530 610 33,000 -50 Descending Denver Center
Sun 03:22:21 AM 37.9392 -104.5431 89° East 525 604 33,000  Level Denver Center
Sun 03:23:21 AM 37.9417 -104.3592 89° East 524 603 33,000  Level Denver Center
Sun 03:24:22 AM 37.9417 -104.1728 90° East 524 603 33,000  Level Denver Center
Sun 03:25:22 AM 37.9428 -103.9858 90° East 524 603 33,000  Level Denver Center
Sun 03:26:22 AM 37.9447 -103.7992 89° East 525 604 33,000  Level Denver Center
Sun 03:27:23 AM 37.9447 -103.6119 90° East 526 605 33,000  Level Denver Center
Sun 03:28:23 AM 37.9447 -103.4256 90° East 526 605 33,000  Level Denver Center
Sun 03:29:23 AM 37.9461 -103.2403 89° East 526 605 33,000  Level Denver Center
Sun 03:30:24 AM 37.9444 -103.0561 91° East 526 605 33,000  Level Denver Center
Sun 03:31:24 AM 37.9450 -102.8728 90° East 524 603 33,000  Level Denver Center
Sun 03:32:24 AM 37.9444 -102.6875 90° East 525 604 33,000  Level Denver Center
Sun 03:33:25 AM 37.9428 -102.5036 91° East 524 603 33,000  Level Denver Center
Sun 03:34:25 AM 37.9419 -102.3075 90° East 524 603 33,000  Level Denver Center
Sun 03:35:25 AM 37.9406 -102.1319 91° East 523 602 33,000  Level Denver Center
Sun 03:36:26 AM 37.9383 -101.9564 91° East 523 602 33,000  Level Denver Center
Sun 03:37:26 AM 37.9358 -101.7531 91° East 521 600 33,000  Level Denver Center
Sun 03:38:26 AM 37.9339 -101.5781 91° East 521 600 33,000  Level Denver Center
Sun 03:39:27 AM 37.9317 -101.4014 91° East 521 600 33,000  Level Denver Center
Sun 03:40:27 AM 37.9292 -101.2239 91° East 523 602 33,000 50 Level Denver Center
Sun 03:41:27 AM 37.9250 -101.0142 91° East 528 608 33,100 50 Climbing Denver Center
Sun 03:42:28 AM 37.9208 -100.8342 92° East 528 608 33,100 -47 Level Denver Center
Sun 03:43:35 AM 37.9133 -100.6267 93° East 525 604 33,000 -47 Descending Kansas City Center
Sun 03:44:35 AM 37.9000 -100.4519 95° East 521 600 33,000  Level Kansas City Center
Sun 03:45:37 AM 37.8872 -100.2786 95° East 520 598 33,000  Level Kansas City Center
Sun 03:46:37 AM 37.8719 -100.0775 95° East 518 596 33,000  Level Kansas City Center
Sun 03:47:36 AM 37.8589 -99.9069 95° East 514 592 33,000  Level Kansas City Center
Sun 03:48:36 AM 37.8456 -99.7350 96° East 514 592 33,000  Level Kansas City Center
Sun 03:49:37 AM 37.8331 -99.5625 95° East 514 592 33,000  Level Kansas City Center
Sun 03:50:36 AM 37.8178 -99.3617 95° East 514 592 33,000  Level Kansas City Center
Sun 03:51:36 AM 37.8028 -99.1817 96° East 515 593 33,000  Level Kansas City Center
Sun 03:52:37 AM 37.7886 -99.0017 96° East 515 593 33,000  Level Kansas City Center
Sun 03:53:37 AM 37.7744 -98.8233 96° East 515 593 33,000  Level Kansas City Center
Sun 03:54:37 AM 37.7578 -98.6447 97° East 515 593 33,000  Level Kansas City Center
Sun 03:55:37 AM 37.7428 -98.4672 96° East 515 593 33,000  Level Kansas City Center
Sun 03:56:37 AM 37.7258 -98.2892 97° East 515 593 33,000  Level Kansas City Center
Sun 03:57:38 AM 37.7100 -98.1139 96° East 515 593 33,000  Level Kansas City Center
Sun 03:58:38 AM 37.6950 -97.9353 96° East 514 592 33,000  Level Kansas City Center
Sun 03:59:40 AM 37.6756 -97.7497 97° East 520 598 33,000  Level Kansas City Center
Sun 04:00:41 AM 37.6575 -97.5681 97° East 520 598 33,000  Level Kansas City Center
Sun 04:01:39 AM 37.6431 -97.3989 96° East 520 598 33,000  Level Kansas City Center
Sun 04:02:39 AM 37.6250 -97.2183 97° East 520 598 33,000  Level Kansas City Center
Sun 04:03:40 AM 37.6075 -97.0375 97° East 521 600 33,000  Level Kansas City Center
Sun 04:04:39 AM 37.5897 -96.8581 97° East 521 600 33,000  Level Kansas City Center
Sun 04:05:39 AM 37.5742 -96.6781 96° East 522 601 33,000  Level Kansas City Center
Sun 04:06:42 AM 37.5561 -96.4972 97° East 523 602 33,000  Level Kansas City Center
Sun 04:07:43 AM 37.5378 -96.3094 97° East 522 601 33,000  Level Kansas City Center
Sun 04:08:42 AM 37.5181 -96.1294 98° East 521 600 33,000  Level Kansas City Center
Sun 04:09:42 AM 37.4986 -95.9497 98° East 519 597 33,000  Level Kansas City Center
Sun 04:10:42 AM 37.4836 -95.7711 96° East 517 595 33,000  Level Kansas City Center
Sun 04:11:41 AM 37.4692 -95.5961 96° East 510 587 33,000  Level Kansas City Center
Sun 04:12:41 AM 37.4533 -95.4200 96° East 506 582 33,000  Level Kansas City Center
Sun 04:13:41 AM 37.4383 -95.2383 96° East 509 586 33,000  Level Kansas City Center
Sun 04:14:41 AM 37.4233 -95.0561 96° East 514 592 33,000  Level Kansas City Center
Sun 04:15:42 AM 37.4072 -94.8761 96° East 517 595 33,000  Level Kansas City Center
Sun 04:16:42 AM 37.3914 -94.6978 96° East 517 595 33,000  Level Kansas City Center
Sun 04:17:42 AM 37.3764 -94.5192 96° East 516 594 33,000  Level Kansas City Center
Sun 04:18:42 AM 37.3608 -94.3422 96° East 514 592 33,000  Level Kansas City Center
Sun 04:19:43 AM 37.3436 -94.1636 97° East 513 590 33,000  Level Kansas City Center
Sun 04:20:43 AM 37.3269 -93.9853 97° East 514 592 33,000  Level Kansas City Center
Sun 04:21:43 AM 37.3106 -93.8072 97° East 514 592 33,000  Level Kansas City Center
Sun 04:22:43 AM 37.2919 -93.6286 97° East 514 592 33,000  Level Kansas City Center
Sun 04:23:45 AM 37.2739 -93.4497 97° East 514 592 33,000  Level Kansas City Center
Sun 04:24:43 AM 37.2550 -93.2700 97° East 518 596 33,000  Level Kansas City Center
Sun 04:25:44 AM 37.2372 -93.0917 97° East 518 596 33,000  Level Kansas City Center
Sun 04:26:44 AM 37.2192 -92.9136 97° East 518 596 33,000  Level Kansas City Center
Sun 04:27:45 AM 37.2000 -92.7358 98° East 518 596 33,000  Level Kansas City Center
Sun 04:28:44 AM 37.1819 -92.5583 97° East 517 595 33,000  Level Kansas City Center
Sun 04:29:44 AM 37.1625 -92.3814 98° East 517 595 33,000  Level Kansas City Center
Sun 04:30:45 AM 37.1431 -92.2036 98° East 517 595 33,000  Level Kansas City Center
Sun 04:31:48 AM 37.1242 -92.0250 98° East 517 595 33,000  Level Kansas City Center
Sun 04:32:46 AM 37.1033 -91.8458 98° East 518 596 33,000  Level Kansas City Center
Sun 04:33:45 AM 37.0831 -91.6692 98° East 518 596 33,000  Level Kansas City Center
Sun 04:34:47 AM 37.0631 -91.4931 98° East 517 595 33,000  Level Kansas City Center
Sun 04:35:40 AM 37.0428 -91.3144 98° East 518 596 33,000  Level Memphis Center
Sun 04:36:40 AM 37.0194 -91.1397 99° East 517 595 33,000  Level Memphis Center
Sun 04:37:40 AM 36.9925 -90.9619 101° East 517 595 33,000  Level Memphis Center
Sun 04:38:40 AM 36.9650 -90.7869 101° East 517 595 33,000  Level Memphis Center
Sun 04:39:40 AM 36.9372 -90.6103 101° East 517 595 33,000  Level Memphis Center
Sun 04:40:40 AM 36.9089 -90.4347 101° East 517 595 33,000  Level Memphis Center
Sun 04:41:41 AM 36.8817 -90.2578 101° East 517 595 33,000  Level Memphis Center
Sun 04:42:41 AM 36.8536 -90.0828 101° East 517 595 33,000  Level Memphis Center
Sun 04:43:41 AM 36.8253 -89.9081 101° East 516 594 33,000  Level Memphis Center
Sun 04:44:41 AM 36.8031 -89.7311 99° East 515 593 33,000  Level Memphis Center
Sun 04:45:41 AM 36.7803 -89.5542 99° East 515 593 33,000  Level Memphis Center
Sun 04:46:41 AM 36.7578 -89.3764 99° East 515 593 33,000  Level Memphis Center
Sun 04:47:42 AM 36.7333 -89.1986 100° East 515 593 33,000  Level Memphis Center
Sun 04:48:42 AM 36.7156 -89.0581 99° East 513 590 33,000  Level Memphis Center
Sun 04:49:42 AM 36.6917 -88.8808 99° East 511 588 33,000  Level Memphis Center
Sun 04:50:42 AM 36.6672 -88.7050 100° East 512 589 33,000  Level Memphis Center
Sun 04:51:42 AM 36.6433 -88.5281 99° East 514 592 33,000  Level Memphis Center
Sun 04:52:43 AM 36.6175 -88.3519 100° East 514 592 33,000  Level Memphis Center
Sun 04:53:43 AM 36.5936 -88.1764 100° East 514 592 33,000  Level Memphis Center
Sun 04:54:43 AM 36.5647 -87.9714 100° East 514 592 33,000  Level Memphis Center
Sun 04:55:43 AM 36.5392 -87.7939 100° East 514 592 33,000  Level Memphis Center
Sun 04:56:43 AM 36.5183 -87.6475 100° East 514 592 33,000  Level Memphis Center
Sun 04:57:44 AM 36.4919 -87.4689 100° East 515 593 33,000  Level Memphis Center
Sun 04:58:44 AM 36.4650 -87.2911 101° East 516 594 33,000  Level Memphis Center
Sun 04:59:44 AM 36.4389 -87.1142 100° East 516 594 33,000  Level Memphis Center
Sun 05:00:44 AM 36.4131 -86.9367 100° East 516 594 33,000  Level Memphis Center
Sun 05:01:44 AM 36.3828 -86.7486 101° East 518 596 33,000  Level Memphis Center
Sun 05:02:45 AM 36.3544 -86.5708 101° East 519 597 33,000  Level Memphis Center
Sun 05:03:45 AM 36.3272 -86.3961 101° East 516 594 33,000  Level Memphis Center
Sun 05:04:45 AM 36.3003 -86.2214 101° East 514 592 33,000  Level Memphis Center
Sun 05:05:45 AM 36.2719 -86.0464 101° East 514 592 33,000  Level Memphis Center
Sun 05:06:45 AM 36.2436 -85.8728 101° East 514 592 33,000  Level Memphis Center
Sun 05:07:46 AM 36.2197 -85.7244 101° East 512 589 33,000  Level Memphis Center
Sun 05:08:46 AM 36.1917 -85.5511 101° East 512 589 33,000  Level Memphis Center
Sun 05:09:46 AM 36.1622 -85.3792 102° East 512 589 33,000  Level Memphis Center
Sun 05:10:46 AM 36.1336 -85.2083 102° East 509 586 33,000  Level Memphis Center
Sun 05:11:52 AM 36.1003 -85.0075 102° East 500 575 33,000  Level Atlanta Center
Sun 05:12:52 AM 36.0725 -84.8378 101° East 500 575 33,000  Level Atlanta Center
Sun 05:13:52 AM 36.0442 -84.6858 103° East 500 575 33,000  Level Atlanta Center
Sun 05:14:52 AM 36.0136 -84.5189 103° East 500 575 33,000  Level Atlanta Center
Sun 05:15:52 AM 35.9850 -84.3467 102° East 500 575 33,000  Level Atlanta Center
Sun 05:16:52 AM 35.9561 -84.1825 102° East 505 581 33,000  Level Atlanta Center
Sun 05:17:52 AM 35.9269 -84.0208 103° East 488 562 33,000  Level Atlanta Center
Sun 05:18:52 AM 35.9039 -83.8567 100° East 488 562 33,000  Level Atlanta Center
Sun 05:19:52 AM 35.8992 -83.6928 92° East 483 556 33,000  Level Atlanta Center
Sun 05:20:52 AM 35.8986 -83.5286 90° East 483 556 33,000  Level Atlanta Center
Sun 05:21:52 AM 35.8936 -83.3619 92° East 483 556 33,000 -700 Level Atlanta Center
Sun 05:22:52 AM 35.8736 -83.1725 97° East 488 562 31,600 -1,750 Descending Atlanta Center
Sun 05:23:52 AM 35.8517 -83.0217 100° East 495 570 29,500 -2,600 Descending Atlanta Center
Sun 05:24:52 AM 35.8208 -82.8403 102° East 500 575 26,400 -2,800 Descending Atlanta Center
Sun 05:25:52 AM 35.7964 -82.6819 101° East 481 554 23,900 -2,250 Descending Atlanta Center
Sun 05:26:52 AM 35.7717 -82.5442 102° East 467 537 21,900 -2,200 Descending Atlanta Center
Sun 05:27:52 AM 35.7469 -82.3936 101° East 462 532 19,500 -2,450 Descending Atlanta Center
Sun 05:28:52 AM 35.7217 -82.2356 101° East 437 503 17,000 -2,350 Descending Atlanta Center
Sun 05:29:52 AM 35.6986 -82.0953 101° East 424 488 14,800 -1,929 Descending Atlanta Center
Sun 05:30:44 AM 35.6758 -81.9758 103° East 429 494 13,400 -1,532 Descending Atlanta Center
Sun 05:31:26 AM 35.6597 -81.8789 102° East 384 442 12,400 -1,324 Descending Atlanta Center
Sun 05:31:52 AM 35.6503 -81.8306 104° East 402 463 11,900 -1,082 Descending Atlanta Center
Sun 05:32:27 AM 35.6386 -81.7544 101° East 372 428 11,300 -900 Descending Atlanta Center
Sun 05:32:52 AM 35.6294 -81.7061 103° East 381 438 11,000 -200 Descending Atlanta Center
Sun 05:33:27 AM 35.6153 -81.6272 102° East 376 433 11,100  Climbing Atlanta Center
Sun 05:33:52 AM 35.6061 -81.5789 103° East 376 433 11,000 -98 Descending Atlanta Center
Sun 05:34:28 AM 35.5858 -81.5056 109° East 377 434 11,000 -400 Level Atlanta Center
Sun 05:34:52 AM 35.5744 -81.4600 107° East 370 426 10,600 -500 Descending Atlanta Center
Sun 05:35:28 AM 35.5564 -81.3967 109° East 332 382 10,500 -900 Descending Atlanta Center
Sun 05:35:52 AM 35.5469 -81.3561 106° East 352 405 9,700 -1,967 Descending Atlanta Center
Sun 05:36:29 AM 35.5292 -81.2956 110° East 286 329 8,500 -1,900 Descending Atlanta Center
Sun 05:36:52 AM 35.5222 -81.2678 107° East 312 359 7,800 -1,475 Descending Atlanta Center
Sun 05:37:30 AM 35.5042 -81.2044 109° East 291 335 7,000 -1,400 Descending Atlanta Center
Sun 05:37:52 AM 35.4969 -81.1742 106° East 298 343 6,400 -1,600 Descending Atlanta Center
Sun 05:38:30 AM 35.4831 -81.1083 105° East 286 329 5,400 -1,500 Descending Atlanta Center
Sun 05:38:52 AM 35.4719 -81.0833 119° Southeast 293 337 4,900 -1,164 Descending Atlanta Center
Sun 05:39:37 AM 35.4433 -81.0153 117° Southeast 269 310 4,100 -1,000 Descending Atlanta Center
Sun 05:39:52 AM 35.4347 -81.0056 137° Southeast 273 314 3,900 -436 Descending Atlanta Center
Sun 05:40:32 AM 35.3919 -80.9689 145° Southeast 222 255 3,700 -540 Descending Atlanta Center
Sun 05:41:32 AM 35.3397 -80.9658 177° South 184 212 3,000 -793 Descending Atlanta Center
Sun 05:42:33 AM 35.2917 -80.9625 177° South 161 185 2,100 -843 Descending Atlanta Center
Sun 05:43:33 AM 35.2497 -80.9564 173° South 146 168 1,300 -800 Descending Atlanta Center
Sun 05:45:00 AM 35.2137 -80.9491 175° South  Level Estimated
Sun 05:52:00 AM 35.2137 -80.9491 22° Northeast  Level Estimated

Login

Don't have an account? Register now (free) for customized features, flight alerts, and more!